Eldridge, North Dakota
Current Conditions -  °F | °C
As of 5:56 PM on Friday 24 Oct 2014 (Local Time) from KJMS Reporting Station
Clear Clear  
Wind Chill: 63°   Ceiling: Unl
Heat Index: 63°   Visibility: 10mi
Dew Point: 33°   Wind: 15mph
Humidity: 33%   Direction: 280°W
Pressure: 29.88"   Gusts: NA
Location:  46.8494°N, 98.7424°W
Report Text: KJMS 242256Z AUTO 28013KT 10SM CLR 17/01 A2988 RMK AO2 SLP124 T01720006
Loading
Personal Weather Stations






























Interactive Weather Map
Tropical Storm Tracking
New forecast layout! Learn more

10-Day Weather Forecast

Advertisements
Track Severe Weather on mobile